sensor_id;sensor_type;location;lat;lon;timestamp;temperature;humidity
80256;DHT22;69564;37.974;23.708;2023-05-10T00:00:13;24.10;36.10
80256;DHT22;69564;37.974;23.708;2023-05-10T00:02:39;24.20;36.10
80256;DHT22;69564;37.974;23.708;2023-05-10T00:05:06;24.10;36.10
80256;DHT22;69564;37.974;23.708;2023-05-10T00:07:32;24.10;36.10
80256;DHT22;69564;37.974;23.708;2023-05-10T00:09:58;24.20;36.20
80256;DHT22;69564;37.974;23.708;2023-05-10T00:12:23;24.10;36.10
80256;DHT22;69564;37.974;23.708;2023-05-10T00:14:49;24.20;36.20
80256;DHT22;69564;37.974;23.708;2023-05-10T00:17:15;24.10;36.10
80256;DHT22;69564;37.974;23.708;2023-05-10T00:19:40;24.10;36.20
80256;DHT22;69564;37.974;23.708;2023-05-10T00:22:06;24.10;36.30
80256;DHT22;69564;37.974;23.708;2023-05-10T00:24:32;24.10;36.20
80256;DHT22;69564;37.974;23.708;2023-05-10T00:26:57;24.10;36.20
80256;DHT22;69564;37.974;23.708;2023-05-10T00:29:23;24.10;36.20
80256;DHT22;69564;37.974;23.708;2023-05-10T00:31:49;24.10;36.30
80256;DHT22;69564;37.974;23.708;2023-05-10T00:34:15;24.10;36.30
80256;DHT22;69564;37.974;23.708;2023-05-10T00:36:41;24.20;36.30
80256;DHT22;69564;37.974;23.708;2023-05-10T00:39:07;24.10;36.30
80256;DHT22;69564;37.974;23.708;2023-05-10T00:41:33;24.10;36.30
80256;DHT22;69564;37.974;23.708;2023-05-10T00:43:59;24.10;36.30
80256;DHT22;69564;37.974;23.708;2023-05-10T00:46:25;24.10;36.30
80256;DHT22;69564;37.974;23.708;2023-05-10T00:48:51;24.10;36.30
80256;DHT22;69564;37.974;23.708;2023-05-10T00:51:17;24.10;36.30
80256;DHT22;69564;37.974;23.708;2023-05-10T00:53:47;24.10;36.30
80256;DHT22;69564;37.974;23.708;2023-05-10T00:56:13;24.10;36.30
80256;DHT22;69564;37.974;23.708;2023-05-10T00:58:42;24.10;36.30
80256;DHT22;69564;37.974;23.708;2023-05-10T01:01:09;24.10;36.30
80256;DHT22;69564;37.974;23.708;2023-05-10T01:03:36;24.10;36.30
80256;DHT22;69564;37.974;23.708;2023-05-10T01:06:02;24.10;36.30
80256;DHT22;69564;37.974;23.708;2023-05-10T01:08:28;24.10;36.30
80256;DHT22;69564;37.974;23.708;2023-05-10T01:10:55;24.10;36.30
80256;DHT22;69564;37.974;23.708;2023-05-10T01:15:57;24.10;36.20
80256;DHT22;69564;37.974;23.708;2023-05-10T01:18:23;24.10;37.40
80256;DHT22;69564;37.974;23.708;2023-05-10T01:21:17;24.10;36.20
80256;DHT22;69564;37.974;23.708;2023-05-10T01:37:46;24.00;36.00
80256;DHT22;69564;37.974;23.708;2023-05-10T01:40:26;24.00;36.00
80256;DHT22;69564;37.974;23.708;2023-05-10T01:43:01;24.00;35.90
80256;DHT22;69564;37.974;23.708;2023-05-10T01:45:31;24.10;36.00
80256;DHT22;69564;37.974;23.708;2023-05-10T01:48:05;24.00;35.90
80256;DHT22;69564;37.974;23.708;2023-05-10T01:50:33;24.00;35.80
80256;DHT22;69564;37.974;23.708;2023-05-10T01:53:02;24.00;35.90
80256;DHT22;69564;37.974;23.708;2023-05-10T01:55:32;24.00;35.80
80256;DHT22;69564;37.974;23.708;2023-05-10T01:58:06;24.00;35.80
80256;DHT22;69564;37.974;23.708;2023-05-10T02:00:34;24.00;35.90
80256;DHT22;69564;37.974;23.708;2023-05-10T02:03:04;24.00;35.70
80256;DHT22;69564;37.974;23.708;2023-05-10T02:05:33;24.10;35.80
80256;DHT22;69564;37.974;23.708;2023-05-10T02:08:01;24.00;35.70
80256;DHT22;69564;37.974;23.708;2023-05-10T02:10:28;24.10;35.80
80256;DHT22;69564;37.974;23.708;2023-05-10T02:12:55;24.00;35.60
80256;DHT22;69564;37.974;23.708;2023-05-10T02:15:24;24.00;35.60
80256;DHT22;69564;37.974;23.708;2023-05-10T02:17:54;24.00;35.60
80256;DHT22;69564;37.974;23.708;2023-05-10T02:20:20;24.00;35.60
80256;DHT22;69564;37.974;23.708;2023-05-10T02:22:49;24.00;35.60
80256;DHT22;69564;37.974;23.708;2023-05-10T02:25:17;24.00;35.60
80256;DHT22;69564;37.974;23.708;2023-05-10T02:27:44;24.00;35.60
80256;DHT22;69564;37.974;23.708;2023-05-10T02:30:12;24.00;35.60
80256;DHT22;69564;37.974;23.708;2023-05-10T02:32:38;24.00;35.50
80256;DHT22;69564;37.974;23.708;2023-05-10T02:35:05;24.00;35.50
80256;DHT22;69564;37.974;23.708;2023-05-10T02:37:31;24.00;36.70
80256;DHT22;69564;37.974;23.708;2023-05-10T02:39:58;24.00;35.50
80256;DHT22;69564;37.974;23.708;2023-05-10T02:42:27;24.00;35.50
80256;DHT22;69564;37.974;23.708;2023-05-10T02:44:56;24.00;35.50
80256;DHT22;69564;37.974;23.708;2023-05-10T02:47:22;24.00;35.60
80256;DHT22;69564;37.974;23.708;2023-05-10T02:49:48;24.00;35.60
80256;DHT22;69564;37.974;23.708;2023-05-10T02:52:18;24.00;35.50
80256;DHT22;69564;37.974;23.708;2023-05-10T02:54:49;24.00;35.50
80256;DHT22;69564;37.974;23.708;2023-05-10T02:57:17;24.00;35.50
80256;DHT22;69564;37.974;23.708;2023-05-10T02:59:45;24.00;35.60
80256;DHT22;69564;37.974;23.708;2023-05-10T03:02:14;24.00;35.50
80256;DHT22;69564;37.974;23.708;2023-05-10T03:04:40;24.00;35.50
80256;DHT22;69564;37.974;23.708;2023-05-10T03:07:07;24.00;35.50
80256;DHT22;69564;37.974;23.708;2023-05-10T03:09:33;24.00;35.50
80256;DHT22;69564;37.974;23.708;2023-05-10T03:20:22;24.00;35.40
80256;DHT22;69564;37.974;23.708;2023-05-10T03:22:53;23.90;35.40
80256;DHT22;69564;37.974;23.708;2023-05-10T03:25:21;23.90;35.40
80256;DHT22;69564;37.974;23.708;2023-05-10T03:27:48;24.00;35.40
80256;DHT22;69564;37.974;23.708;2023-05-10T03:30:16;23.90;35.30
80256;DHT22;69564;37.974;23.708;2023-05-10T03:32:42;23.90;35.30
80256;DHT22;69564;37.974;23.708;2023-05-10T03:35:12;23.90;35.30
80256;DHT22;69564;37.974;23.708;2023-05-10T03:37:38;23.90;35.20
80256;DHT22;69564;37.974;23.708;2023-05-10T03:40:05;24.00;35.20
80256;DHT22;69564;37.974;23.708;2023-05-10T03:42:31;24.00;35.30
80256;DHT22;69564;37.974;23.708;2023-05-10T03:44:56;23.90;35.20
80256;DHT22;69564;37.974;23.708;2023-05-10T03:47:22;24.00;35.20
80256;DHT22;69564;37.974;23.708;2023-05-10T03:49:48;24.00;35.20
80256;DHT22;69564;37.974;23.708;2023-05-10T03:52:14;24.00;35.20
80256;DHT22;69564;37.974;23.708;2023-05-10T03:54:39;24.00;35.10
80256;DHT22;69564;37.974;23.708;2023-05-10T03:57:05;24.00;35.00
80256;DHT22;69564;37.974;23.708;2023-05-10T03:59:31;24.00;35.00
80256;DHT22;69564;37.974;23.708;2023-05-10T04:01:56;24.00;35.00
80256;DHT22;69564;37.974;23.708;2023-05-10T04:04:22;23.90;34.90
80256;DHT22;69564;37.974;23.708;2023-05-10T04:06:48;24.00;34.90
80256;DHT22;69564;37.974;23.708;2023-05-10T04:09:14;24.00;34.90
80256;DHT22;69564;37.974;23.708;2023-05-10T04:11:41;24.00;34.90
80256;DHT22;69564;37.974;23.708;2023-05-10T04:14:07;24.00;34.80
80256;DHT22;69564;37.974;23.708;2023-05-10T04:16:33;24.00;34.80
80256;DHT22;69564;37.974;23.708;2023-05-10T04:18:58;24.00;35.20
80256;DHT22;69564;37.974;23.708;2023-05-10T04:21:25;24.00;36.20
80256;DHT22;69564;37.974;23.708;2023-05-10T04:23:50;24.00;35.90
80256;DHT22;69564;37.974;23.708;2023-05-10T04:26:16;23.90;35.80
80256;DHT22;69564;37.974;23.708;2023-05-10T04:28:42;23.90;35.80
80256;DHT22;69564;37.974;23.708;2023-05-10T04:31:09;23.90;35.80
80256;DHT22;69564;37.974;23.708;2023-05-10T04:33:35;23.90;35.70
80256;DHT22;69564;37.974;23.708;2023-05-10T04:36:01;23.90;35.60
80256;DHT22;69564;37.974;23.708;2023-05-10T04:38:29;23.90;35.60
80256;DHT22;69564;37.974;23.708;2023-05-10T04:41:03;23.90;35.60
80256;DHT22;69564;37.974;23.708;2023-05-10T04:43:28;23.90;35.50
80256;DHT22;69564;37.974;23.708;2023-05-10T04:45:56;23.90;35.40
80256;DHT22;69564;37.974;23.708;2023-05-10T04:48:23;24.00;35.40
80256;DHT22;69564;37.974;23.708;2023-05-10T04:50:49;23.90;35.30
80256;DHT22;69564;37.974;23.708;2023-05-10T04:53:14;24.00;35.30
80256;DHT22;69564;37.974;23.708;2023-05-10T04:55:40;24.00;35.20
80256;DHT22;69564;37.974;23.708;2023-05-10T04:58:06;24.00;35.10
80256;DHT22;69564;37.974;23.708;2023-05-10T05:00:33;24.10;35.10
80256;DHT22;69564;37.974;23.708;2023-05-10T05:02:59;24.10;35.00
80256;DHT22;69564;37.974;23.708;2023-05-10T05:05:25;24.10;34.90
80256;DHT22;69564;37.974;23.708;2023-05-10T05:07:51;24.10;34.70
80256;DHT22;69564;37.974;23.708;2023-05-10T05:10:16;24.20;34.60
80256;DHT22;69564;37.974;23.708;2023-05-10T05:12:42;24.20;34.50
80256;DHT22;69564;37.974;23.708;2023-05-10T05:15:08;24.40;34.30
80256;DHT22;69564;37.974;23.708;2023-05-10T05:17:35;24.40;34.00
80256;DHT22;69564;37.974;23.708;2023-05-10T05:20:01;24.60;33.80
80256;DHT22;69564;37.974;23.708;2023-05-10T05:22:27;24.70;33.50
80256;DHT22;69564;37.974;23.708;2023-05-10T05:24:57;24.80;33.20
80256;DHT22;69564;37.974;23.708;2023-05-10T05:27:24;24.90;33.10
80256;DHT22;69564;37.974;23.708;2023-05-10T05:29:55;24.90;33.10
80256;DHT22;69564;37.974;23.708;2023-05-10T05:32:21;24.90;33.00
80256;DHT22;69564;37.974;23.708;2023-05-10T05:34:47;24.90;33.00
80256;DHT22;69564;37.974;23.708;2023-05-10T05:37:17;24.90;32.80
80256;DHT22;69564;37.974;23.708;2023-05-10T05:39:43;24.90;32.70
80256;DHT22;69564;37.974;23.708;2023-05-10T05:42:10;25.00;32.70
80256;DHT22;69564;37.974;23.708;2023-05-10T05:44:36;25.10;32.70
80256;DHT22;69564;37.974;23.708;2023-05-10T05:47:02;25.10;32.60
80256;DHT22;69564;37.974;23.708;2023-05-10T05:49:27;25.10;32.40
80256;DHT22;69564;37.974;23.708;2023-05-10T05:51:53;25.20;32.40
80256;DHT22;69564;37.974;23.708;2023-05-10T05:54:19;25.20;32.20
80256;DHT22;69564;37.974;23.708;2023-05-10T05:56:44;25.20;32.10
80256;DHT22;69564;37.974;23.708;2023-05-10T05:59:11;25.30;32.10
80256;DHT22;69564;37.974;23.708;2023-05-10T06:01:37;25.30;33.10
80256;DHT22;69564;37.974;23.708;2023-05-10T06:04:02;25.40;32.00
80256;DHT22;69564;37.974;23.708;2023-05-10T06:06:28;25.30;31.80
80256;DHT22;69564;37.974;23.708;2023-05-10T06:08:54;25.40;31.80
80256;DHT22;69564;37.974;23.708;2023-05-10T06:11:20;25.40;31.70
80256;DHT22;69564;37.974;23.708;2023-05-10T06:13:47;25.40;31.60
80256;DHT22;69564;37.974;23.708;2023-05-10T06:16:12;25.50;31.50
80256;DHT22;69564;37.974;23.708;2023-05-10T06:18:39;25.60;31.40
80256;DHT22;69564;37.974;23.708;2023-05-10T06:21:05;25.60;31.30
80256;DHT22;69564;37.974;23.708;2023-05-10T06:23:30;25.60;31.30
80256;DHT22;69564;37.974;23.708;2023-05-10T06:25:56;25.60;31.30
80256;DHT22;69564;37.974;23.708;2023-05-10T06:28:22;25.60;31.30
80256;DHT22;69564;37.974;23.708;2023-05-10T06:30:48;25.50;31.30
80256;DHT22;69564;37.974;23.708;2023-05-10T06:33:13;25.50;31.30
80256;DHT22;69564;37.974;23.708;2023-05-10T06:35:41;25.50;31.30
80256;DHT22;69564;37.974;23.708;2023-05-10T06:38:09;25.50;31.20
80256;DHT22;69564;37.974;23.708;2023-05-10T06:40:35;25.60;31.30
80256;DHT22;69564;37.974;23.708;2023-05-10T06:43:01;25.50;31.20
80256;DHT22;69564;37.974;23.708;2023-05-10T06:45:27;25.60;31.30
80256;DHT22;69564;37.974;23.708;2023-05-10T06:47:53;25.60;31.20
80256;DHT22;69564;37.974;23.708;2023-05-10T06:50:19;25.60;31.10
80256;DHT22;69564;37.974;23.708;2023-05-10T06:52:53;25.60;31.00
80256;DHT22;69564;37.974;23.708;2023-05-10T06:55:19;25.60;31.00
80256;DHT22;69564;37.974;23.708;2023-05-10T06:57:44;25.60;30.90
80256;DHT22;69564;37.974;23.708;2023-05-10T07:00:11;25.70;31.00
80256;DHT22;69564;37.974;23.708;2023-05-10T07:02:36;25.70;30.90
80256;DHT22;69564;37.974;23.708;2023-05-10T07:05:08;25.70;30.90
80256;DHT22;69564;37.974;23.708;2023-05-10T07:07:36;25.70;30.70
80256;DHT22;69564;37.974;23.708;2023-05-10T07:10:13;25.70;31.90
80256;DHT22;69564;37.974;23.708;2023-05-10T07:12:41;25.70;30.60
80256;DHT22;69564;37.974;23.708;2023-05-10T07:15:08;25.80;30.70
80256;DHT22;69564;37.974;23.708;2023-05-10T07:17:34;25.80;30.60
80256;DHT22;69564;37.974;23.708;2023-05-10T07:20:00;25.80;31.80
80256;DHT22;69564;37.974;23.708;2023-05-10T07:22:26;25.80;30.60
80256;DHT22;69564;37.974;23.708;2023-05-10T07:24:52;25.70;30.60
80256;DHT22;69564;37.974;23.708;2023-05-10T07:27:17;25.70;30.60
80256;DHT22;69564;37.974;23.708;2023-05-10T07:29:43;25.70;30.70
80256;DHT22;69564;37.974;23.708;2023-05-10T07:32:09;25.70;30.60
80256;DHT22;69564;37.974;23.708;2023-05-10T07:34:35;25.70;30.60
80256;DHT22;69564;37.974;23.708;2023-05-10T07:37:01;25.70;30.60
80256;DHT22;69564;37.974;23.708;2023-05-10T07:39:29;25.70;30.60
80256;DHT22;69564;37.974;23.708;2023-05-10T07:41:55;25.70;30.60
80256;DHT22;69564;37.974;23.708;2023-05-10T07:44:25;25.70;30.60
80256;DHT22;69564;37.974;23.708;2023-05-10T07:46:53;25.70;30.60
80256;DHT22;69564;37.974;23.708;2023-05-10T07:49:33;25.70;30.70
80256;DHT22;69564;37.974;23.708;2023-05-10T07:51:59;25.70;30.70
80256;DHT22;69564;37.974;23.708;2023-05-10T07:54:27;25.70;30.80
80256;DHT22;69564;37.974;23.708;2023-05-10T07:57:01;25.70;30.90
80256;DHT22;69564;37.974;23.708;2023-05-10T07:59:27;25.70;30.90
80256;DHT22;69564;37.974;23.708;2023-05-10T08:01:52;25.70;30.80
80256;DHT22;69564;37.974;23.708;2023-05-10T08:04:18;25.70;30.80
80256;DHT22;69564;37.974;23.708;2023-05-10T08:06:44;25.70;30.80
80256;DHT22;69564;37.974;23.708;2023-05-10T08:09:10;25.70;30.80
80256;DHT22;69564;37.974;23.708;2023-05-10T08:11:38;25.70;30.70
80256;DHT22;69564;37.974;23.708;2023-05-10T08:14:04;25.70;30.70
80256;DHT22;69564;37.974;23.708;2023-05-10T08:16:33;25.70;30.70
80256;DHT22;69564;37.974;23.708;2023-05-10T08:18:59;25.70;30.70
80256;DHT22;69564;37.974;23.708;2023-05-10T08:21:25;25.70;30.60
80256;DHT22;69564;37.974;23.708;2023-05-10T08:23:54;25.70;30.60
80256;DHT22;69564;37.974;23.708;2023-05-10T08:26:19;25.70;30.60
80256;DHT22;69564;37.974;23.708;2023-05-10T08:28:46;25.70;30.60
80256;DHT22;69564;37.974;23.708;2023-05-10T08:31:12;25.70;30.60
80256;DHT22;69564;37.974;23.708;2023-05-10T08:33:38;25.60;30.50
80256;DHT22;69564;37.974;23.708;2023-05-10T08:36:04;25.70;30.60
80256;DHT22;69564;37.974;23.708;2023-05-10T08:38:29;25.70;30.50
80256;DHT22;69564;37.974;23.708;2023-05-10T08:40:55;25.70;30.40
80256;DHT22;69564;37.974;23.708;2023-05-10T08:43:28;25.70;30.30
80256;DHT22;69564;37.974;23.708;2023-05-10T08:45:55;25.70;30.20
80256;DHT22;69564;37.974;23.708;2023-05-10T08:48:39;25.80;30.10
80256;DHT22;69564;37.974;23.708;2023-05-10T08:51:05;25.80;30.10
80256;DHT22;69564;37.974;23.708;2023-05-10T08:53:36;25.80;30.00
80256;DHT22;69564;37.974;23.708;2023-05-10T08:56:03;25.80;30.00
80256;DHT22;69564;37.974;23.708;2023-05-10T08:58:29;25.80;30.00
80256;DHT22;69564;37.974;23.708;2023-05-10T09:01:04;25.90;30.00
80256;DHT22;69564;37.974;23.708;2023-05-10T09:03:32;25.90;29.90
80256;DHT22;69564;37.974;23.708;2023-05-10T09:06:00;25.90;29.90
80256;DHT22;69564;37.974;23.708;2023-05-10T09:08:29;25.90;30.90
80256;DHT22;69564;37.974;23.708;2023-05-10T09:10:57;25.90;30.00
80256;DHT22;69564;37.974;23.708;2023-05-10T09:13:24;25.90;31.10
80256;DHT22;69564;37.974;23.708;2023-05-10T09:15:51;25.90;30.00
80256;DHT22;69564;37.974;23.708;2023-05-10T09:18:18;25.80;30.00
80256;DHT22;69564;37.974;23.708;2023-05-10T09:20:44;25.80;30.00
80256;DHT22;69564;37.974;23.708;2023-05-10T09:23:10;25.80;30.00
80256;DHT22;69564;37.974;23.708;2023-05-10T09:25:36;25.80;30.00
80256;DHT22;69564;37.974;23.708;2023-05-10T09:28:06;25.80;30.00
80256;DHT22;69564;37.974;23.708;2023-05-10T09:30:34;25.80;30.00
80256;DHT22;69564;37.974;23.708;2023-05-10T09:33:01;25.80;30.00
80256;DHT22;69564;37.974;23.708;2023-05-10T09:35:29;25.80;30.00
80256;DHT22;69564;37.974;23.708;2023-05-10T09:38:00;25.80;30.00
80256;DHT22;69564;37.974;23.708;2023-05-10T09:40:27;25.80;30.00
80256;DHT22;69564;37.974;23.708;2023-05-10T09:43:19;25.80;29.90
80256;DHT22;69564;37.974;23.708;2023-05-10T09:45:48;25.80;29.90
80256;DHT22;69564;37.974;23.708;2023-05-10T09:48:16;25.80;29.90
80256;DHT22;69564;37.974;23.708;2023-05-10T09:50:42;25.80;29.90
80256;DHT22;69564;37.974;23.708;2023-05-10T09:53:07;25.80;29.80
80256;DHT22;69564;37.974;23.708;2023-05-10T09:55:44;25.80;29.90
80256;DHT22;69564;37.974;23.708;2023-05-10T09:58:13;25.80;29.80
80256;DHT22;69564;37.974;23.708;2023-05-10T10:00:44;25.80;29.80
80256;DHT22;69564;37.974;23.708;2023-05-10T10:03:15;25.80;29.80
80256;DHT22;69564;37.974;23.708;2023-05-10T10:05:42;25.80;29.80
80256;DHT22;69564;37.974;23.708;2023-05-10T10:08:09;25.80;29.80
80256;DHT22;69564;37.974;23.708;2023-05-10T10:10:35;25.80;29.70
80256;DHT22;69564;37.974;23.708;2023-05-10T10:13:01;25.80;29.70
80256;DHT22;69564;37.974;23.708;2023-05-10T10:15:59;25.80;29.70
80256;DHT22;69564;37.974;23.708;2023-05-10T10:18:26;25.80;29.70
80256;DHT22;69564;37.974;23.708;2023-05-10T10:21:02;25.90;29.70
80256;DHT22;69564;37.974;23.708;2023-05-10T10:26:19;25.90;29.70
80256;DHT22;69564;37.974;23.708;2023-05-10T10:31:55;25.90;29.70
80256;DHT22;69564;37.974;23.708;2023-05-10T10:34:28;25.90;29.70
80256;DHT22;69564;37.974;23.708;2023-05-10T10:36:55;25.90;29.70
80256;DHT22;69564;37.974;23.708;2023-05-10T10:39:22;25.80;29.70
80256;DHT22;69564;37.974;23.708;2023-05-10T10:41:52;25.80;29.70
80256;DHT22;69564;37.974;23.708;2023-05-10T11:03:06;25.60;30.10
80256;DHT22;69564;37.974;23.708;2023-05-10T11:08:28;25.50;30.20
80256;DHT22;69564;37.974;23.708;2023-05-10T11:13:43;25.50;30.30
80256;DHT22;69564;37.974;23.708;2023-05-10T11:16:19;25.50;30.40
80256;DHT22;69564;37.974;23.708;2023-05-10T11:19:12;25.40;30.50
80256;DHT22;69564;37.974;23.708;2023-05-10T11:22:12;25.40;30.50
80256;DHT22;69564;37.974;23.708;2023-05-10T11:24:38;25.50;30.60
80256;DHT22;69564;37.974;23.708;2023-05-10T11:27:05;25.50;30.60
80256;DHT22;69564;37.974;23.708;2023-05-10T11:29:31;25.50;30.60
80256;DHT22;69564;37.974;23.708;2023-05-10T11:31:57;25.50;30.60
80256;DHT22;69564;37.974;23.708;2023-05-10T11:36:54;25.50;30.60
80256;DHT22;69564;37.974;23.708;2023-05-10T11:39:21;25.50;30.70
80256;DHT22;69564;37.974;23.708;2023-05-10T11:41:50;25.50;30.70
80256;DHT22;69564;37.974;23.708;2023-05-10T11:44:16;25.50;30.80
80256;DHT22;69564;37.974;23.708;2023-05-10T11:46:42;25.50;31.00
80256;DHT22;69564;37.974;23.708;2023-05-10T11:49:07;25.50;31.00
80256;DHT22;69564;37.974;23.708;2023-05-10T11:51:34;25.50;31.00
80256;DHT22;69564;37.974;23.708;2023-05-10T11:54:08;25.40;31.00
80256;DHT22;69564;37.974;23.708;2023-05-10T11:56:34;25.50;31.20
80256;DHT22;69564;37.974;23.708;2023-05-10T11:59:01;25.50;31.30
80256;DHT22;69564;37.974;23.708;2023-05-10T12:01:28;25.50;31.40
80256;DHT22;69564;37.974;23.708;2023-05-10T12:03:55;25.40;31.50
80256;DHT22;69564;37.974;23.708;2023-05-10T12:06:29;25.40;31.50
80256;DHT22;69564;37.974;23.708;2023-05-10T12:08:57;25.40;31.40
80256;DHT22;69564;37.974;23.708;2023-05-10T12:11:27;25.50;31.50
80256;DHT22;69564;37.974;23.708;2023-05-10T12:13:54;25.40;31.50
80256;DHT22;69564;37.974;23.708;2023-05-10T12:16:23;25.50;31.60
80256;DHT22;69564;37.974;23.708;2023-05-10T12:18:50;25.50;31.60
80256;DHT22;69564;37.974;23.708;2023-05-10T12:21:20;25.40;31.50
80256;DHT22;69564;37.974;23.708;2023-05-10T12:23:58;25.50;31.60
80256;DHT22;69564;37.974;23.708;2023-05-10T12:26:25;25.50;31.60
80256;DHT22;69564;37.974;23.708;2023-05-10T12:29:11;25.50;31.70
80256;DHT22;69564;37.974;23.708;2023-05-10T12:31:57;25.50;31.80
80256;DHT22;69564;37.974;23.708;2023-05-10T12:34:33;25.40;31.60
80256;DHT22;69564;37.974;23.708;2023-05-10T12:37:00;25.40;31.70
80256;DHT22;69564;37.974;23.708;2023-05-10T12:39:26;25.50;31.80
80256;DHT22;69564;37.974;23.708;2023-05-10T12:42:03;25.40;31.70
80256;DHT22;69564;37.974;23.708;2023-05-10T12:44:28;25.50;31.80
80256;DHT22;69564;37.974;23.708;2023-05-10T12:46:54;25.50;31.70
80256;DHT22;69564;37.974;23.708;2023-05-10T12:49:20;25.50;31.80
80256;DHT22;69564;37.974;23.708;2023-05-10T12:51:45;25.50;31.90
80256;DHT22;69564;37.974;23.708;2023-05-10T12:54:11;25.40;31.70
80256;DHT22;69564;37.974;23.708;2023-05-10T12:56:37;25.40;31.80
80256;DHT22;69564;37.974;23.708;2023-05-10T12:59:02;25.50;31.90
80256;DHT22;69564;37.974;23.708;2023-05-10T13:01:28;25.40;31.90
80256;DHT22;69564;37.974;23.708;2023-05-10T13:03:54;25.40;32.30
80256;DHT22;69564;37.974;23.708;2023-05-10T13:06:20;25.40;32.00
80256;DHT22;69564;37.974;23.708;2023-05-10T13:08:45;25.30;32.00
80256;DHT22;69564;37.974;23.708;2023-05-10T13:11:11;25.30;32.10
80256;DHT22;69564;37.974;23.708;2023-05-10T13:13:37;25.30;32.10
80256;DHT22;69564;37.974;23.708;2023-05-10T13:16:02;25.30;32.10
80256;DHT22;69564;37.974;23.708;2023-05-10T13:18:28;25.30;32.20
80256;DHT22;69564;37.974;23.708;2023-05-10T13:20:54;25.30;32.20
80256;DHT22;69564;37.974;23.708;2023-05-10T13:23:21;25.30;32.40
80256;DHT22;69564;37.974;23.708;2023-05-10T13:25:46;25.30;32.30
80256;DHT22;69564;37.974;23.708;2023-05-10T13:28:12;25.30;32.40
80256;DHT22;69564;37.974;23.708;2023-05-10T13:30:38;25.30;32.40
80256;DHT22;69564;37.974;23.708;2023-05-10T13:33:03;25.30;32.50
80256;DHT22;69564;37.974;23.708;2023-05-10T13:35:29;25.30;32.50
80256;DHT22;69564;37.974;23.708;2023-05-10T13:37:55;25.30;32.50
80256;DHT22;69564;37.974;23.708;2023-05-10T13:40:23;25.30;32.60
80256;DHT22;69564;37.974;23.708;2023-05-10T13:42:48;25.20;32.50
80256;DHT22;69564;37.974;23.708;2023-05-10T13:45:14;25.20;32.60
80256;DHT22;69564;37.974;23.708;2023-05-10T13:47:40;25.20;32.70
80256;DHT22;69564;37.974;23.708;2023-05-10T13:50:06;25.20;32.80
80256;DHT22;69564;37.974;23.708;2023-05-10T13:52:32;25.20;32.70
80256;DHT22;69564;37.974;23.708;2023-05-10T13:54:58;25.20;32.80
80256;DHT22;69564;37.974;23.708;2023-05-10T13:57:24;25.20;32.90
80256;DHT22;69564;37.974;23.708;2023-05-10T13:59:50;25.20;32.90
80256;DHT22;69564;37.974;23.708;2023-05-10T14:02:15;25.20;33.00
80256;DHT22;69564;37.974;23.708;2023-05-10T14:04:41;25.10;32.80
80256;DHT22;69564;37.974;23.708;2023-05-10T14:07:07;25.10;32.90
80256;DHT22;69564;37.974;23.708;2023-05-10T14:09:32;25.10;32.90
80256;DHT22;69564;37.974;23.708;2023-05-10T14:11:58;25.10;33.00
80256;DHT22;69564;37.974;23.708;2023-05-10T14:14:24;25.10;33.00
80256;DHT22;69564;37.974;23.708;2023-05-10T14:16:50;25.10;33.00
80256;DHT22;69564;37.974;23.708;2023-05-10T14:19:16;25.10;33.20
80256;DHT22;69564;37.974;23.708;2023-05-10T14:21:41;25.10;33.10
80256;DHT22;69564;37.974;23.708;2023-05-10T14:24:08;25.10;33.10
80256;DHT22;69564;37.974;23.708;2023-05-10T14:26:34;25.10;33.10
80256;DHT22;69564;37.974;23.708;2023-05-10T14:29:00;25.10;33.20
80256;DHT22;69564;37.974;23.708;2023-05-10T14:31:25;25.10;33.20
80256;DHT22;69564;37.974;23.708;2023-05-10T14:33:52;25.10;33.20
80256;DHT22;69564;37.974;23.708;2023-05-10T14:36:17;25.10;33.20
80256;DHT22;69564;37.974;23.708;2023-05-10T14:38:43;25.10;33.20
80256;DHT22;69564;37.974;23.708;2023-05-10T14:41:09;25.10;33.20
80256;DHT22;69564;37.974;23.708;2023-05-10T14:43:39;25.10;33.20
80256;DHT22;69564;37.974;23.708;2023-05-10T14:46:05;25.10;33.20
80256;DHT22;69564;37.974;23.708;2023-05-10T14:48:30;25.10;33.30
80256;DHT22;69564;37.974;23.708;2023-05-10T14:50:56;25.10;33.30
80256;DHT22;69564;37.974;23.708;2023-05-10T14:53:22;25.10;33.30
80256;DHT22;69564;37.974;23.708;2023-05-10T14:55:48;25.10;33.30
80256;DHT22;69564;37.974;23.708;2023-05-10T14:58:13;25.10;33.30
80256;DHT22;69564;37.974;23.708;2023-05-10T15:00:40;25.10;33.30
80256;DHT22;69564;37.974;23.708;2023-05-10T15:03:06;25.10;33.30
80256;DHT22;69564;37.974;23.708;2023-05-10T15:05:32;25.00;33.40
80256;DHT22;69564;37.974;23.708;2023-05-10T15:07:57;25.00;33.40
80256;DHT22;69564;37.974;23.708;2023-05-10T15:10:23;25.00;33.40
80256;DHT22;69564;37.974;23.708;2023-05-10T15:12:50;25.00;33.40
80256;DHT22;69564;37.974;23.708;2023-05-10T15:15:15;25.10;34.70
80256;DHT22;69564;37.974;23.708;2023-05-10T15:17:41;25.00;33.50
80256;DHT22;69564;37.974;23.708;2023-05-10T15:20:07;25.00;33.60
80256;DHT22;69564;37.974;23.708;2023-05-10T15:22:33;25.00;33.60
80256;DHT22;69564;37.974;23.708;2023-05-10T15:24:59;25.00;33.60
80256;DHT22;69564;37.974;23.708;2023-05-10T15:27:25;25.00;33.60
80256;DHT22;69564;37.974;23.708;2023-05-10T15:29:51;24.90;33.50
80256;DHT22;69564;37.974;23.708;2023-05-10T15:32:17;25.00;33.60
80256;DHT22;69564;37.974;23.708;2023-05-10T15:34:42;24.90;33.50
80256;DHT22;69564;37.974;23.708;2023-05-10T15:37:08;25.00;33.70
80256;DHT22;69564;37.974;23.708;2023-05-10T15:39:34;24.90;33.70
80256;DHT22;69564;37.974;23.708;2023-05-10T15:41:59;24.90;33.70
80256;DHT22;69564;37.974;23.708;2023-05-10T15:44:26;24.90;33.80
80256;DHT22;69564;37.974;23.708;2023-05-10T15:46:52;24.80;33.80
80256;DHT22;69564;37.974;23.708;2023-05-10T15:49:18;24.90;33.90
80256;DHT22;69564;37.974;23.708;2023-05-10T15:51:43;24.80;33.80
80256;DHT22;69564;37.974;23.708;2023-05-10T15:54:09;24.80;33.90
80256;DHT22;69564;37.974;23.708;2023-05-10T15:56:35;24.80;35.10
80256;DHT22;69564;37.974;23.708;2023-05-10T15:59:01;24.80;34.00
80256;DHT22;69564;37.974;23.708;2023-05-10T16:01:26;24.70;33.90
80256;DHT22;69564;37.974;23.708;2023-05-10T16:03:53;24.80;34.00
80256;DHT22;69564;37.974;23.708;2023-05-10T16:06:18;24.70;34.10
80256;DHT22;69564;37.974;23.708;2023-05-10T16:08:44;24.70;34.10
80256;DHT22;69564;37.974;23.708;2023-05-10T16:11:10;24.70;34.20
80256;DHT22;69564;37.974;23.708;2023-05-10T16:13:35;24.70;34.60